Time;durP1;ratioP1;P1;durP2;ratioP2;P2;SDS_P1;SDS_P2;PMS_P1;PMS_P2;Temp;Humidity;BMP_temperature;BMP_pressure;BME280_temperature;BME280_humidity;BME280_pressure;Samples;Min_cycle;Max_cycle;Signal;HPM_P1;HPM_P2
2022/04/21 00:06:20;;;;;;;10.57;4.93;;;4.20;99.90;;;;;;21219621;27;20047;-51
2022/04/21 00:16:23;;;;;;;8.05;5.60;;;4.20;99.90;;;;;;21131002;28;20112;-54
2022/04/21 00:26:25;;;;;;;7.50;4.35;;;4.10;99.90;;;;;;21136364;27;20028;-50
2022/04/21 00:36:27;;;;;;;6.38;4.53;;;4.00;99.90;;;;;;21184158;27;20095;-52
2022/04/21 00:46:31;;;;;;;7.25;4.80;;;4.00;99.90;;;;;;21148510;27;20051;-53
2022/04/21 00:56:33;;;;;;;7.72;4.80;;;3.90;99.90;;;;;;21132444;27;20032;-52
2022/04/21 01:06:36;;;;;;;8.63;5.30;;;3.80;99.90;;;;;;21199813;27;20035;-53
2022/04/21 01:16:38;;;;;;;9.85;6.00;;;3.60;99.90;;;;;;21182125;27;20036;-53
2022/04/21 01:26:41;;;;;;;8.90;5.35;;;3.60;99.90;;;;;;21160861;27;20065;-53
2022/04/21 01:47:05;;;;;;;10.65;7.43;;;3.40;99.90;;;;;;21181727;27;20651;-57
2022/04/21 01:57:08;;;;;;;11.77;7.20;;;3.50;99.90;;;;;;21128008;28;20040;-52
2022/04/21 02:07:11;;;;;;;12.52;7.10;;;3.60;99.90;;;;;;21138477;28;20031;-54
2022/04/21 02:17:14;;;;;;;12.32;8.00;;;3.30;99.90;;;;;;21187614;27;20088;-50
2022/04/21 02:27:17;;;;;;;14.25;9.20;;;3.00;99.90;;;;;;21143626;28;20061;-51
2022/04/21 02:37:21;;;;;;;13.45;8.60;;;2.60;99.90;;;;;;21152821;27;20031;-54
2022/04/21 02:47:24;;;;;;;16.52;10.15;;;2.60;99.90;;;;;;21188843;27;20494;-50
2022/04/21 02:57:30;;;;;;;18.45;9.05;;;2.70;99.90;;;;;;21166210;27;20334;-53
2022/04/21 03:07:33;;;;;;;16.73;9.25;;;2.70;99.90;;;;;;21189629;27;20028;-56
2022/04/21 03:17:35;;;;;;;17.20;9.65;;;2.70;99.90;;;;;;21209073;27;20080;-55
2022/04/21 03:27:38;;;;;;;18.70;11.43;;;2.40;99.90;;;;;;21163087;27;20065;-52
2022/04/21 03:37:40;;;;;;;19.55;11.07;;;2.00;99.90;;;;;;21161951;27;20053;-53
2022/04/21 03:47:43;;;;;;;19.05;10.70;;;1.90;99.90;;;;;;21186859;27;20040;-53
2022/04/21 03:57:46;;;;;;;18.80;11.90;;;1.70;99.90;;;;;;21183962;27;20088;-53
2022/04/21 04:18:09;;;;;;;24.80;12.40;;;1.80;99.90;;;;;;21137422;27;20418;-54
2022/04/21 04:28:11;;;;;;;19.40;11.45;;;1.90;99.90;;;;;;21190730;27;20065;-56
2022/04/21 04:38:14;;;;;;;15.48;9.38;;;2.20;99.90;;;;;;21202391;27;20437;-53
2022/04/21 04:48:16;;;;;;;18.10;9.60;;;2.50;99.90;;;;;;21160606;27;20035;-53
2022/04/21 04:58:19;;;;;;;15.20;9.77;;;2.70;99.90;;;;;;21149549;27;20027;-53
2022/04/21 05:08:22;;;;;;;16.98;10.07;;;2.90;99.90;;;;;;21130622;28;20742;-53
2022/04/21 05:18:25;;;;;;;16.27;9.07;;;3.10;99.90;;;;;;21151730;27;20088;-51
2022/04/21 05:28:28;;;;;;;13.18;8.25;;;3.40;99.90;;;;;;21164616;27;20039;-57
2022/04/21 05:38:31;;;;;;;13.60;8.32;;;3.70;99.90;;;;;;21129114;28;20484;-52
2022/04/21 05:48:37;;;;;;;15.05;8.80;;;4.00;99.90;;;;;;21148715;27;20040;-58
2022/04/21 05:58:40;;;;;;;13.20;7.68;;;4.40;99.90;;;;;;21178816;27;20397;-58
2022/04/21 06:08:43;;;;;;;13.15;8.85;;;4.80;99.90;;;;;;21127386;28;20043;-53
2022/04/21 06:18:45;;;;;;;13.00;8.48;;;5.00;99.90;;;;;;21142754;28;20027;-59
2022/04/21 06:28:48;;;;;;;10.98;7.78;;;5.40;99.90;;;;;;21211433;28;20039;-53
2022/04/21 06:38:51;;;;;;;14.15;8.32;;;5.80;99.90;;;;;;21189641;28;20055;-54
2022/04/21 06:48:53;;;;;;;12.20;7.80;;;6.20;99.90;;;;;;21153299;28;20548;-59
2022/04/21 06:58:56;;;;;;;10.23;7.15;;;6.20;99.90;;;;;;21200914;28;20107;-53
2022/04/21 07:08:59;;;;;;;10.77;6.85;;;6.50;99.90;;;;;;21140326;28;20035;-54
2022/04/21 07:19:01;;;;;;;9.13;5.95;;;7.40;99.90;;;;;;21139844;28;20039;-59
2022/04/21 07:29:04;;;;;;;7.95;5.38;;;8.00;99.90;;;;;;21203633;27;20035;-59
2022/04/21 07:39:06;;;;;;;11.07;6.05;;;8.30;99.90;;;;;;21187827;27;20043;-55
2022/04/21 07:59:30;;;;;;;10.82;5.82;;;8.70;99.90;;;;;;21201205;27;20170;-60
2022/04/21 08:09:33;;;;;;;7.65;5.25;;;9.60;99.90;;;;;;21189070;27;20396;-55
2022/04/21 08:19:36;;;;;;;7.25;5.32;;;10.20;99.90;;;;;;21134329;28;20040;-56
2022/04/21 08:40:01;;;;;;;9.05;5.22;;;10.80;97.50;;;;;;21149010;27;20100;-54
2022/04/21 08:50:12;;;;;;;6.13;4.45;;;11.10;98.00;;;;;;21214313;27;20043;-60
2022/04/21 09:00:15;;;;;;;7.85;4.68;;;11.40;96.00;;;;;;21216314;27;20551;-60
2022/04/21 09:10:20;;;;;;;6.45;4.57;;;11.20;97.20;;;;;;21215312;27;20035;-55
2022/04/21 09:20:26;;;;;;;8.52;5.05;;;11.40;98.30;;;;;;21215462;27;20042;-56
2022/04/21 09:30:29;;;;;;;8.82;4.93;;;11.80;98.00;;;;;;21191156;27;20449;-57
2022/04/21 09:40:32;;;;;;;7.68;5.22;;;12.70;97.60;;;;;;21213109;27;20047;-57
2022/04/21 09:50:39;;;;;;;6.65;4.70;;;14.00;94.70;;;;;;21196026;27;20031;-58
2022/04/21 10:00:45;;;;;;;8.73;5.32;;;13.90;93.90;;;;;;21116439;28;20131;-57
2022/04/21 10:10:53;;;;;;;10.55;5.65;;;13.70;92.60;;;;;;21144742;28;20104;-57
2022/04/21 10:20:56;;;;;;;7.15;5.10;;;13.00;96.00;;;;;;21127240;28;20035;-57
2022/04/21 10:31:19;;;;;;;9.73;5.55;;;13.50;91.20;;;;;;21126572;28;20035;-57
2022/04/21 10:42:10;;;;;;;7.63;4.90;;;13.10;95.30;;;;;;21164302;27;20416;-59
2022/04/21 11:02:15;;;;;;;6.80;5.10;;;13.40;92.00;;;;;;21223522;27;20091;-57
2022/04/21 11:12:42;;;;;;;8.27;4.43;;;14.00;94.90;;;;;;21212454;27;20064;-55
2022/04/21 11:22:44;;;;;;;5.13;4.10;;;14.30;93.40;;;;;;21161501;27;20039;-61
2022/04/21 11:32:54;;;;;;;6.63;3.97;;;13.00;94.40;;;;;;21195680;27;20069;-60
2022/04/21 11:42:58;;;;;;;6.67;4.43;;;12.10;95.10;;;;;;21137592;28;20040;-54
2022/04/21 11:53:20;;;;;;;7.75;4.15;;;11.70;95.80;;;;;;21177765;27;20057;-54
2022/04/21 12:13:48;;;;;;;8.63;4.00;;;10.80;95.90;;;;;;21138654;28;20031;-61
2022/04/21 12:23:50;;;;;;;10.27;5.22;;;10.50;96.20;;;;;;21185218;27;20031;-54
2022/04/21 12:33:53;;;;;;;4.90;3.63;;;10.90;95.80;;;;;;21179591;27;20069;-55
2022/04/21 12:43:57;;;;;;;7.47;4.20;;;11.00;96.50;;;;;;21193247;27;20079;-53
2022/04/21 12:54:01;;;;;;;4.57;3.33;;;10.90;97.80;;;;;;21157045;27;20085;-53
2022/04/21 13:04:03;;;;;;;7.85;3.53;;;10.70;97.20;;;;;;21142792;27;20035;-54
2022/04/21 13:14:06;;;;;;;6.57;4.28;;;10.50;97.60;;;;;;21198243;27;20457;-54
2022/04/21 13:24:09;;;;;;;6.30;4.20;;;10.60;98.40;;;;;;21195105;27;20076;-53
2022/04/21 13:34:11;;;;;;;6.15;4.15;;;10.70;98.10;;;;;;21191934;27;20035;-55
2022/04/21 13:44:15;;;;;;;5.57;3.88;;;10.70;97.90;;;;;;21204074;27;20047;-54
2022/04/21 13:54:18;;;;;;;5.95;4.13;;;10.50;98.60;;;;;;21165527;27;20057;-53
2022/04/21 14:04:21;;;;;;;5.72;4.60;;;10.50;98.90;;;;;;21146135;28;20054;-54
2022/04/21 14:14:28;;;;;;;6.25;4.20;;;10.50;98.40;;;;;;21211245;27;20035;-55
2022/04/21 14:24:30;;;;;;;6.50;4.30;;;10.50;98.80;;;;;;21229012;27;20027;-54
2022/04/21 14:34:33;;;;;;;7.93;5.05;;;10.30;99.90;;;;;;21158886;28;20058;-60
2022/04/21 14:44:36;;;;;;;7.85;4.63;;;9.90;99.90;;;;;;21167774;27;20100;-60
2022/04/21 14:54:40;;;;;;;6.53;4.50;;;9.90;99.90;;;;;;21157665;27;20092;-53
2022/04/21 15:04:42;;;;;;;6.63;4.35;;;9.70;99.90;;;;;;21215177;27;20040;-55
2022/04/21 15:14:46;;;;;;;9.10;5.00;;;9.20;99.90;;;;;;21107381;28;20036;-59
2022/04/21 15:24:52;;;;;;;10.07;4.93;;;8.70;99.90;;;;;;21206273;27;20039;-53
2022/04/21 15:34:55;;;;;;;8.32;4.90;;;8.80;99.90;;;;;;21223643;27;20499;-54
2022/04/21 15:44:57;;;;;;;7.75;4.90;;;8.80;99.90;;;;;;21222476;27;20051;-59
2022/04/21 16:05:23;;;;;;;7.63;5.30;;;8.80;99.90;;;;;;21221361;27;20035;-59
2022/04/21 16:15:29;;;;;;;8.43;5.40;;;8.50;99.90;;;;;;21220469;27;20096;-60
2022/04/21 16:25:32;;;;;;;9.10;5.25;;;8.30;99.90;;;;;;21219051;27;20251;-59
2022/04/21 16:35:35;;;;;;;8.40;5.50;;;7.90;99.90;;;;;;21134557;28;20080;-54
2022/04/21 16:45:38;;;;;;;10.35;6.25;;;7.50;99.90;;;;;;21167568;27;20055;-59
2022/04/21 16:55:40;;;;;;;9.98;6.72;;;7.20;99.90;;;;;;21199902;27;20060;-59
2022/04/21 17:05:43;;;;;;;13.05;7.03;;;7.40;99.90;;;;;;21215708;27;20441;-60
2022/04/21 17:15:47;;;;;;;11.10;6.40;;;7.40;99.90;;;;;;21216205;27;20035;-59
2022/04/21 17:25:49;;;;;;;14.20;7.63;;;7.40;99.90;;;;;;21209727;27;20476;-59
2022/04/21 17:35:53;;;;;;;10.38;7.13;;;7.30;99.90;;;;;;21213746;27;20064;-59
2022/04/21 17:45:55;;;;;;;11.80;6.47;;;7.10;99.90;;;;;;21212534;27;20051;-58
2022/04/21 17:55:59;;;;;;;11.95;7.10;;;7.10;99.90;;;;;;21183960;27;20035;-52
2022/04/21 18:06:02;;;;;;;12.95;7.35;;;7.10;99.90;;;;;;21212234;28;20035;-54
2022/04/21 18:16:05;;;;;;;12.68;6.97;;;7.10;99.90;;;;;;21201969;28;20458;-53
2022/04/21 18:26:07;;;;;;;11.65;7.40;;;7.10;99.90;;;;;;21131082;28;20084;-55
2022/04/21 18:36:11;;;;;;;10.50;6.40;;;7.10;99.90;;;;;;21194820;28;20445;-59
2022/04/21 18:46:14;;;;;;;14.60;6.55;;;7.10;99.90;;;;;;21184728;28;20382;-58
2022/04/21 18:56:18;;;;;;;13.40;6.47;;;7.10;99.90;;;;;;21129843;28;20389;-53
2022/04/21 19:06:22;;;;;;;11.40;6.28;;;7.10;99.90;;;;;;21145271;27;20027;-58
2022/04/21 19:16:26;;;;;;;8.13;5.25;;;7.20;99.90;;;;;;21140256;28;20031;-54
2022/04/21 19:26:30;;;;;;;8.75;5.07;;;7.10;99.90;;;;;;21186388;27;20509;-58
2022/04/21 19:36:35;;;;;;;8.50;4.78;;;7.10;99.90;;;;;;21138862;28;20051;-50
2022/04/21 19:46:40;;;;;;;10.05;5.22;;;7.00;99.90;;;;;;21239051;27;20411;-53
2022/04/21 19:56:51;;;;;;;6.78;4.53;;;7.10;99.90;;;;;;21219863;27;20031;-58
2022/04/21 20:17:16;;;;;;;8.90;4.95;;;7.10;99.90;;;;;;21220499;27;20039;-50
2022/04/21 20:27:20;;;;;;;11.20;5.65;;;7.10;99.90;;;;;;21215008;27;20038;-52
2022/04/21 20:37:23;;;;;;;7.60;4.50;;;7.00;99.90;;;;;;21218002;27;20054;-50
2022/04/21 20:47:30;;;;;;;9.50;4.13;;;6.90;99.90;;;;;;21137742;28;20077;-54
2022/04/21 20:57:34;;;;;;;8.98;5.88;;;6.60;99.90;;;;;;21132001;28;20023;-54
2022/04/21 21:07:37;;;;;;;9.10;5.03;;;6.30;99.90;;;;;;21131463;28;20024;-54
2022/04/21 21:17:42;;;;;;;6.85;4.45;;;6.20;99.90;;;;;;21084373;28;20549;-53
2022/04/21 21:27:45;;;;;;;8.95;5.05;;;6.30;99.90;;;;;;21105098;28;20031;-53
2022/04/21 21:37:49;;;;;;;6.90;4.43;;;6.50;99.90;;;;;;21129259;28;20096;-54
2022/04/21 21:47:52;;;;;;;7.82;4.70;;;6.60;99.90;;;;;;21210520;27;20445;-54
2022/04/21 21:57:55;;;;;;;9.27;5.55;;;6.40;99.90;;;;;;21140189;28;20043;-53
2022/04/21 22:07:58;;;;;;;11.63;6.30;;;5.90;99.90;;;;;;21207810;28;20031;-50
2022/04/21 22:18:02;;;;;;;8.93;5.80;;;5.60;99.90;;;;;;21157930;28;20032;-52
2022/04/21 22:28:05;;;;;;;13.18;6.70;;;5.50;99.90;;;;;;21154615;28;20491;-51
2022/04/21 22:38:09;;;;;;;13.63;7.22;;;5.40;99.90;;;;;;21200960;27;20088;-52
2022/04/21 22:48:12;;;;;;;15.13;7.38;;;5.30;99.90;;;;;;21165030;27;20269;-51
2022/04/21 22:58:15;;;;;;;13.55;7.93;;;5.20;99.90;;;;;;21141644;28;20104;-49
2022/04/21 23:08:17;;;;;;;11.13;6.75;;;5.10;99.90;;;;;;21149650;27;20084;-54
2022/04/21 23:18:21;;;;;;;12.88;6.85;;;5.00;99.90;;;;;;21171873;27;20035;-53
2022/04/21 23:28:23;;;;;;;11.68;6.72;;;5.00;99.90;;;;;;21155378;27;20476;-46
2022/04/21 23:38:29;;;;;;;14.35;8.13;;;5.00;99.90;;;;;;21163569;27;20027;-46
2022/04/21 23:48:32;;;;;;;12.18;7.47;;;5.00;99.90;;;;;;21188528;27;20097;-46
2022/04/21 23:58:35;;;;;;;10.93;6.70;;;4.90;99.90;;;;;;21195947;27;20051;-47
